RJFK(METAR)
05/21 17:00
METAR RJFK 210800Z 32014KT 9999 FEW020 23/04 Q1005 RMK 1CU020 A2969
VOLCANIC ASH CLOUD S=
戻る
トップページへ戻る
IMOC Co,.Ltd.